sensor_id;sensor_type;location;lat;lon;timestamp;P1;durP1;ratioP1;P2;durP2;ratioP2
75285;SDS011;63879;46.064;14.532;2023-07-09T06:00:29;8.30;;;5.47;;
75285;SDS011;63879;46.064;14.532;2023-07-09T06:02:55;7.53;;;5.70;;
75285;SDS011;63879;46.064;14.532;2023-07-09T06:05:21;8.23;;;6.40;;
75285;SDS011;63879;46.064;14.532;2023-07-09T06:07:47;9.85;;;6.38;;
75285;SDS011;63879;46.064;14.532;2023-07-09T06:10:13;7.73;;;4.93;;
75285;SDS011;63879;46.064;14.532;2023-07-09T06:12:38;7.85;;;5.57;;
75285;SDS011;63879;46.064;14.532;2023-07-09T06:15:05;8.20;;;5.88;;
75285;SDS011;63879;46.064;14.532;2023-07-09T06:17:31;9.35;;;6.47;;
75285;SDS011;63879;46.064;14.532;2023-07-09T06:19:56;10.97;;;6.67;;
75285;SDS011;63879;46.064;14.532;2023-07-09T06:22:21;8.03;;;6.43;;
75285;SDS011;63879;46.064;14.532;2023-07-09T06:24:47;9.02;;;5.97;;
75285;SDS011;63879;46.064;14.532;2023-07-09T06:27:12;6.82;;;5.47;;
75285;SDS011;63879;46.064;14.532;2023-07-09T06:29:37;6.63;;;5.20;;
75285;SDS011;63879;46.064;14.532;2023-07-09T06:32:03;7.13;;;5.53;;
75285;SDS011;63879;46.064;14.532;2023-07-09T06:34:29;6.82;;;5.68;;
75285;SDS011;63879;46.064;14.532;2023-07-09T06:36:55;10.10;;;9.17;;
75285;SDS011;63879;46.064;14.532;2023-07-09T06:39:21;9.48;;;8.48;;
75285;SDS011;63879;46.064;14.532;2023-07-09T06:41:46;7.87;;;7.07;;
75285;SDS011;63879;46.064;14.532;2023-07-09T06:44:13;7.68;;;5.95;;
75285;SDS011;63879;46.064;14.532;2023-07-09T06:46:39;8.48;;;7.78;;
75285;SDS011;63879;46.064;14.532;2023-07-09T06:49:04;8.47;;;6.57;;
75285;SDS011;63879;46.064;14.532;2023-07-09T06:51:32;13.07;;;11.98;;
75285;SDS011;63879;46.064;14.532;2023-07-09T06:53:58;8.20;;;6.47;;
75285;SDS011;63879;46.064;14.532;2023-07-09T06:56:23;11.77;;;10.88;;
75285;SDS011;63879;46.064;14.532;2023-07-09T06:58:49;9.97;;;6.60;;
75285;SDS011;63879;46.064;14.532;2023-07-09T07:01:14;8.25;;;6.97;;
75285;SDS011;63879;46.064;14.532;2023-07-09T07:03:39;8.85;;;7.82;;
75285;SDS011;63879;46.064;14.532;2023-07-09T07:06:05;13.80;;;12.90;;
75285;SDS011;63879;46.064;14.532;2023-07-09T07:08:31;8.25;;;7.25;;
75285;SDS011;63879;46.064;14.532;2023-07-09T07:10:58;9.60;;;8.57;;
75285;SDS011;63879;46.064;14.532;2023-07-09T07:13:28;8.13;;;6.65;;
75285;SDS011;63879;46.064;14.532;2023-07-09T07:15:57;7.15;;;6.45;;
75285;SDS011;63879;46.064;14.532;2023-07-09T07:18:22;7.93;;;7.23;;
75285;SDS011;63879;46.064;14.532;2023-07-09T07:20:48;8.82;;;7.90;;
75285;SDS011;63879;46.064;14.532;2023-07-09T07:23:14;11.38;;;8.13;;
75285;SDS011;63879;46.064;14.532;2023-07-09T07:25:40;8.80;;;7.63;;
75285;SDS011;63879;46.064;14.532;2023-07-09T07:28:06;8.70;;;7.90;;
75285;SDS011;63879;46.064;14.532;2023-07-09T07:30:31;8.32;;;7.00;;
75285;SDS011;63879;46.064;14.532;2023-07-09T07:32:57;8.02;;;7.22;;
75285;SDS011;63879;46.064;14.532;2023-07-09T07:35:22;9.00;;;8.13;;
75285;SDS011;63879;46.064;14.532;2023-07-09T07:37:48;11.52;;;10.52;;
75285;SDS011;63879;46.064;14.532;2023-07-09T07:40:13;9.80;;;8.80;;
75285;SDS011;63879;46.064;14.532;2023-07-09T07:42:39;11.02;;;10.05;;
75285;SDS011;63879;46.064;14.532;2023-07-09T07:45:04;12.17;;;11.27;;
75285;SDS011;63879;46.064;14.532;2023-07-09T07:47:30;9.43;;;8.15;;
75285;SDS011;63879;46.064;14.532;2023-07-09T07:49:56;9.67;;;8.17;;
75285;SDS011;63879;46.064;14.532;2023-07-09T07:52:22;9.63;;;8.77;;
75285;SDS011;63879;46.064;14.532;2023-07-09T07:54:47;11.80;;;9.52;;
75285;SDS011;63879;46.064;14.532;2023-07-09T07:57:13;10.13;;;9.30;;
75285;SDS011;63879;46.064;14.532;2023-07-09T07:59:39;8.40;;;7.70;;
75285;SDS011;63879;46.064;14.532;2023-07-09T08:02:06;10.65;;;9.73;;
75285;SDS011;63879;46.064;14.532;2023-07-09T08:04:32;9.07;;;8.27;;
75285;SDS011;63879;46.064;14.532;2023-07-09T08:06:57;9.82;;;9.05;;
75285;SDS011;63879;46.064;14.532;2023-07-09T08:09:23;11.65;;;10.65;;
75285;SDS011;63879;46.064;14.532;2023-07-09T08:11:49;9.65;;;8.80;;
75285;SDS011;63879;46.064;14.532;2023-07-09T08:14:14;10.30;;;9.50;;
75285;SDS011;63879;46.064;14.532;2023-07-09T08:16:40;11.25;;;10.35;;
75285;SDS011;63879;46.064;14.532;2023-07-09T08:19:05;192.38;;;28.55;;
75285;SDS011;63879;46.064;14.532;2023-07-09T08:21:30;17.20;;;16.13;;
75285;SDS011;63879;46.064;14.532;2023-07-09T08:23:56;9.57;;;7.78;;
75285;SDS011;63879;46.064;14.532;2023-07-09T08:26:21;9.90;;;9.00;;
75285;SDS011;63879;46.064;14.532;2023-07-09T08:28:49;9.93;;;8.95;;
75285;SDS011;63879;46.064;14.532;2023-07-09T08:31:15;9.88;;;8.13;;
75285;SDS011;63879;46.064;14.532;2023-07-09T08:33:41;13.40;;;12.32;;
75285;SDS011;63879;46.064;14.532;2023-07-09T08:36:06;20.05;;;18.92;;
75285;SDS011;63879;46.064;14.532;2023-07-09T08:38:32;9.93;;;8.97;;
75285;SDS011;63879;46.064;14.532;2023-07-09T08:46:33;10.18;;;9.25;;
75285;SDS011;63879;46.064;14.532;2023-07-09T08:49:03;12.45;;;11.48;;
75285;SDS011;63879;46.064;14.532;2023-07-09T08:51:40;12.02;;;11.10;;
75285;SDS011;63879;46.064;14.532;2023-07-09T08:54:28;13.35;;;12.13;;
75285;SDS011;63879;46.064;14.532;2023-07-09T08:56:53;10.50;;;9.50;;
75285;SDS011;63879;46.064;14.532;2023-07-09T08:59:20;10.95;;;10.13;;
75285;SDS011;63879;46.064;14.532;2023-07-09T09:01:48;10.52;;;9.52;;
75285;SDS011;63879;46.064;14.532;2023-07-09T09:04:24;11.85;;;10.93;;
75285;SDS011;63879;46.064;14.532;2023-07-09T09:07:37;10.73;;;9.82;;
75285;SDS011;63879;46.064;14.532;2023-07-09T09:09:46;12.52;;;11.43;;
75285;SDS011;63879;46.064;14.532;2023-07-09T09:12:40;12.57;;;11.57;;
75285;SDS011;63879;46.064;14.532;2023-07-09T09:15:14;15.25;;;14.10;;
75285;SDS011;63879;46.064;14.532;2023-07-09T09:17:41;13.55;;;12.65;;
75285;SDS011;63879;46.064;14.532;2023-07-09T09:20:12;14.43;;;13.43;;
75285;SDS011;63879;46.064;14.532;2023-07-09T09:22:43;14.48;;;13.27;;
75285;SDS011;63879;46.064;14.532;2023-07-09T09:27:40;14.73;;;13.60;;
75285;SDS011;63879;46.064;14.532;2023-07-09T09:30:14;14.20;;;13.23;;
75285;SDS011;63879;46.064;14.532;2023-07-09T09:32:45;18.30;;;17.05;;
75285;SDS011;63879;46.064;14.532;2023-07-09T09:35:13;17.83;;;16.63;;
75285;SDS011;63879;46.064;14.532;2023-07-09T09:37:40;18.52;;;17.48;;
75285;SDS011;63879;46.064;14.532;2023-07-09T09:40:09;16.98;;;15.98;;
75285;SDS011;63879;46.064;14.532;2023-07-09T09:42:35;22.40;;;21.20;;
75285;SDS011;63879;46.064;14.532;2023-07-09T09:45:00;24.40;;;23.20;;
75285;SDS011;63879;46.064;14.532;2023-07-09T09:47:26;23.33;;;22.13;;
75285;SDS011;63879;46.064;14.532;2023-07-09T09:49:53;27.42;;;25.92;;
75285;SDS011;63879;46.064;14.532;2023-07-09T09:52:19;24.92;;;23.73;;
75285;SDS011;63879;46.064;14.532;2023-07-09T09:54:52;30.08;;;28.38;;
75285;SDS011;63879;46.064;14.532;2023-07-09T09:57:20;36.33;;;34.45;;
75285;SDS011;63879;46.064;14.532;2023-07-09T09:59:47;34.90;;;33.20;;
75285;SDS011;63879;46.064;14.532;2023-07-09T10:02:19;33.80;;;32.10;;
75285;SDS011;63879;46.064;14.532;2023-07-09T10:04:47;15.70;;;14.80;;
75285;SDS011;63879;46.064;14.532;2023-07-09T10:07:34;14.93;;;14.02;;
75285;SDS011;63879;46.064;14.532;2023-07-09T10:10:01;11.75;;;10.93;;
75285;SDS011;63879;46.064;14.532;2023-07-09T10:21:01;19.83;;;18.70;;
75285;SDS011;63879;46.064;14.532;2023-07-09T10:23:39;17.33;;;16.33;;
75285;SDS011;63879;46.064;14.532;2023-07-09T10:26:30;10.50;;;9.70;;
75285;SDS011;63879;46.064;14.532;2023-07-09T10:31:55;13.80;;;12.98;;
75285;SDS011;63879;46.064;14.532;2023-07-09T10:34:34;13.93;;;13.13;;
75285;SDS011;63879;46.064;14.532;2023-07-09T10:39:53;14.50;;;13.63;;
75285;SDS011;63879;46.064;14.532;2023-07-09T10:44:51;7.28;;;6.78;;
75285;SDS011;63879;46.064;14.532;2023-07-09T10:47:55;16.15;;;15.23;;
75285;SDS011;63879;46.064;14.532;2023-07-09T10:50:17;12.77;;;12.00;;
75285;SDS011;63879;46.064;14.532;2023-07-09T10:52:47;14.73;;;13.93;;
75285;SDS011;63879;46.064;14.532;2023-07-09T10:55:17;7.03;;;6.40;;
75285;SDS011;63879;46.064;14.532;2023-07-09T10:57:59;8.48;;;7.78;;
75285;SDS011;63879;46.064;14.532;2023-07-09T11:00:37;8.38;;;7.78;;
75285;SDS011;63879;46.064;14.532;2023-07-09T11:03:05;14.32;;;13.43;;
75285;SDS011;63879;46.064;14.532;2023-07-09T11:05:45;10.98;;;10.27;;
75285;SDS011;63879;46.064;14.532;2023-07-09T11:08:15;8.85;;;8.25;;
75285;SDS011;63879;46.064;14.532;2023-07-09T11:10:51;8.95;;;8.25;;
75285;SDS011;63879;46.064;14.532;2023-07-09T11:16:04;9.60;;;8.98;;
75285;SDS011;63879;46.064;14.532;2023-07-09T11:18:30;11.90;;;11.05;;
75285;SDS011;63879;46.064;14.532;2023-07-09T11:21:06;10.18;;;9.43;;
75285;SDS011;63879;46.064;14.532;2023-07-09T11:23:47;10.27;;;9.57;;
75285;SDS011;63879;46.064;14.532;2023-07-09T11:28:50;15.45;;;14.55;;
75285;SDS011;63879;46.064;14.532;2023-07-09T11:31:17;11.68;;;10.98;;
75285;SDS011;63879;46.064;14.532;2023-07-09T11:33:47;13.13;;;12.25;;
75285;SDS011;63879;46.064;14.532;2023-07-09T11:36:28;18.02;;;17.02;;
75285;SDS011;63879;46.064;14.532;2023-07-09T11:38:55;18.70;;;17.48;;
75285;SDS011;63879;46.064;14.532;2023-07-09T11:52:45;24.65;;;23.40;;
75285;SDS011;63879;46.064;14.532;2023-07-09T11:55:25;27.52;;;25.98;;
75285;SDS011;63879;46.064;14.532;2023-07-09T11:57:53;19.17;;;18.17;;
75285;SDS011;63879;46.064;14.532;2023-07-09T12:00:26;17.88;;;16.67;;
75285;SDS011;63879;46.064;14.532;2023-07-09T12:02:54;27.05;;;25.77;;
75285;SDS011;63879;46.064;14.532;2023-07-09T12:05:22;15.93;;;15.05;;
75285;SDS011;63879;46.064;14.532;2023-07-09T12:07:52;20.17;;;19.17;;
75285;SDS011;63879;46.064;14.532;2023-07-09T12:10:20;14.75;;;13.93;;
75285;SDS011;63879;46.064;14.532;2023-07-09T12:12:46;17.77;;;16.85;;
75285;SDS011;63879;46.064;14.532;2023-07-09T12:15:22;17.80;;;16.73;;
75285;SDS011;63879;46.064;14.532;2023-07-09T12:17:56;10.35;;;9.65;;
75285;SDS011;63879;46.064;14.532;2023-07-09T12:20:31;16.30;;;15.50;;
75285;SDS011;63879;46.064;14.532;2023-07-09T12:22:59;14.98;;;13.93;;
75285;SDS011;63879;46.064;14.532;2023-07-09T12:25:25;16.70;;;15.80;;
75285;SDS011;63879;46.064;14.532;2023-07-09T12:27:52;16.05;;;15.10;;
75285;SDS011;63879;46.064;14.532;2023-07-09T12:30:19;16.13;;;15.27;;
75285;SDS011;63879;46.064;14.532;2023-07-09T12:32:45;30.88;;;29.30;;
75285;SDS011;63879;46.064;14.532;2023-07-09T12:35:14;14.52;;;13.65;;
75285;SDS011;63879;46.064;14.532;2023-07-09T12:37:41;10.25;;;9.45;;
75285;SDS011;63879;46.064;14.532;2023-07-09T12:40:30;12.57;;;11.85;;
75285;SDS011;63879;46.064;14.532;2023-07-09T12:42:56;9.52;;;8.93;;
75285;SDS011;63879;46.064;14.532;2023-07-09T12:47:47;10.43;;;9.73;;
75285;SDS011;63879;46.064;14.532;2023-07-09T12:50:17;10.88;;;10.20;;
75285;SDS011;63879;46.064;14.532;2023-07-09T12:52:46;11.55;;;10.85;;
75285;SDS011;63879;46.064;14.532;2023-07-09T12:55:19;14.30;;;13.50;;
75285;SDS011;63879;46.064;14.532;2023-07-09T12:57:46;15.50;;;14.60;;
75285;SDS011;63879;46.064;14.532;2023-07-09T13:00:14;14.82;;;14.00;;
75285;SDS011;63879;46.064;14.532;2023-07-09T13:02:42;9.90;;;9.13;;
75285;SDS011;63879;46.064;14.532;2023-07-09T13:05:19;13.48;;;12.68;;
75285;SDS011;63879;46.064;14.532;2023-07-09T13:07:46;11.73;;;10.98;;
75285;SDS011;63879;46.064;14.532;2023-07-09T13:10:19;10.50;;;9.50;;
75285;SDS011;63879;46.064;14.532;2023-07-09T13:12:51;11.52;;;10.77;;
75285;SDS011;63879;46.064;14.532;2023-07-09T13:15:29;14.05;;;13.25;;
75285;SDS011;63879;46.064;14.532;2023-07-09T13:18:03;9.95;;;9.40;;
75285;SDS011;63879;46.064;14.532;2023-07-09T13:20:30;11.05;;;10.23;;
75285;SDS011;63879;46.064;14.532;2023-07-09T13:22:57;12.27;;;11.55;;
75285;SDS011;63879;46.064;14.532;2023-07-09T13:25:23;11.43;;;10.80;;
75285;SDS011;63879;46.064;14.532;2023-07-09T13:27:48;9.30;;;8.60;;
75285;SDS011;63879;46.064;14.532;2023-07-09T13:30:14;9.57;;;9.00;;
75285;SDS011;63879;46.064;14.532;2023-07-09T13:32:39;8.07;;;7.55;;
75285;SDS011;63879;46.064;14.532;2023-07-09T13:35:12;13.18;;;12.48;;
75285;SDS011;63879;46.064;14.532;2023-07-09T13:37:40;13.65;;;12.93;;
75285;SDS011;63879;46.064;14.532;2023-07-09T13:40:05;15.40;;;14.50;;
75285;SDS011;63879;46.064;14.532;2023-07-09T13:42:34;21.30;;;20.13;;
75285;SDS011;63879;46.064;14.532;2023-07-09T13:45:00;12.77;;;12.17;;
75285;SDS011;63879;46.064;14.532;2023-07-09T13:47:25;24.43;;;23.23;;
75285;SDS011;63879;46.064;14.532;2023-07-09T13:49:51;13.80;;;13.05;;
75285;SDS011;63879;46.064;14.532;2023-07-09T13:52:18;14.90;;;14.00;;
75285;SDS011;63879;46.064;14.532;2023-07-09T13:54:45;13.40;;;12.68;;
75285;SDS011;63879;46.064;14.532;2023-07-09T13:57:14;13.30;;;12.60;;
75285;SDS011;63879;46.064;14.532;2023-07-09T13:59:43;11.35;;;10.55;;
75285;SDS011;63879;46.064;14.532;2023-07-09T14:02:23;12.23;;;11.52;;
75285;SDS011;63879;46.064;14.532;2023-07-09T14:04:52;13.63;;;12.82;;
75285;SDS011;63879;46.064;14.532;2023-07-09T14:07:22;8.83;;;8.23;;
75285;SDS011;63879;46.064;14.532;2023-07-09T14:09:51;7.63;;;7.13;;
75285;SDS011;63879;46.064;14.532;2023-07-09T14:12:16;6.47;;;5.97;;
75285;SDS011;63879;46.064;14.532;2023-07-09T14:14:41;7.87;;;7.07;;
75285;SDS011;63879;46.064;14.532;2023-07-09T14:17:12;5.90;;;5.40;;
75285;SDS011;63879;46.064;14.532;2023-07-09T14:19:38;6.43;;;5.97;;
75285;SDS011;63879;46.064;14.532;2023-07-09T14:22:04;9.47;;;7.83;;
75285;SDS011;63879;46.064;14.532;2023-07-09T14:24:46;7.05;;;6.55;;
75285;SDS011;63879;46.064;14.532;2023-07-09T14:27:11;8.57;;;7.97;;
75285;SDS011;63879;46.064;14.532;2023-07-09T14:29:37;7.55;;;6.95;;
75285;SDS011;63879;46.064;14.532;2023-07-09T14:32:04;12.10;;;11.40;;
75285;SDS011;63879;46.064;14.532;2023-07-09T14:34:32;7.70;;;7.10;;
75285;SDS011;63879;46.064;14.532;2023-07-09T14:36:58;12.55;;;11.75;;
75285;SDS011;63879;46.064;14.532;2023-07-09T14:39:25;5.80;;;5.40;;
75285;SDS011;63879;46.064;14.532;2023-07-09T14:41:52;6.85;;;6.35;;
75285;SDS011;63879;46.064;14.532;2023-07-09T14:46:49;6.45;;;5.03;;
75285;SDS011;63879;46.064;14.532;2023-07-09T14:49:16;5.90;;;5.43;;
75285;SDS011;63879;46.064;14.532;2023-07-09T14:51:42;4.90;;;4.25;;
75285;SDS011;63879;46.064;14.532;2023-07-09T14:54:27;6.75;;;6.25;;
75285;SDS011;63879;46.064;14.532;2023-07-09T14:56:54;6.22;;;5.60;;
75285;SDS011;63879;46.064;14.532;2023-07-09T14:59:21;5.03;;;4.63;;
75285;SDS011;63879;46.064;14.532;2023-07-09T15:01:47;5.68;;;5.18;;
75285;SDS011;63879;46.064;14.532;2023-07-09T15:04:22;5.35;;;4.95;;
75285;SDS011;63879;46.064;14.532;2023-07-09T15:06:52;5.45;;;4.95;;
75285;SDS011;63879;46.064;14.532;2023-07-09T15:09:22;5.22;;;4.70;;
75285;SDS011;63879;46.064;14.532;2023-07-09T15:11:48;5.90;;;4.20;;
75285;SDS011;63879;46.064;14.532;2023-07-09T15:14:18;10.38;;;9.73;;
75285;SDS011;63879;46.064;14.532;2023-07-09T15:16:45;5.93;;;5.43;;
75285;SDS011;63879;46.064;14.532;2023-07-09T15:19:12;5.65;;;5.25;;
75285;SDS011;63879;46.064;14.532;2023-07-09T15:21:38;6.47;;;5.95;;
75285;SDS011;63879;46.064;14.532;2023-07-09T15:24:03;5.05;;;4.63;;
75285;SDS011;63879;46.064;14.532;2023-07-09T15:26:29;8.45;;;7.85;;
75285;SDS011;63879;46.064;14.532;2023-07-09T15:28:55;5.57;;;5.15;;
75285;SDS011;63879;46.064;14.532;2023-07-09T15:31:20;6.60;;;5.63;;
75285;SDS011;63879;46.064;14.532;2023-07-09T15:33:46;5.53;;;4.80;;
75285;SDS011;63879;46.064;14.532;2023-07-09T15:36:11;5.27;;;4.77;;
75285;SDS011;63879;46.064;14.532;2023-07-09T15:38:37;5.68;;;5.20;;
75285;SDS011;63879;46.064;14.532;2023-07-09T15:41:06;5.15;;;4.65;;
75285;SDS011;63879;46.064;14.532;2023-07-09T15:43:42;5.13;;;4.35;;
75285;SDS011;63879;46.064;14.532;2023-07-09T15:46:08;6.40;;;4.72;;
75285;SDS011;63879;46.064;14.532;2023-07-09T15:48:42;5.85;;;5.25;;
75285;SDS011;63879;46.064;14.532;2023-07-09T15:51:09;4.80;;;4.22;;
75285;SDS011;63879;46.064;14.532;2023-07-09T15:53:34;6.17;;;3.90;;
75285;SDS011;63879;46.064;14.532;2023-07-09T15:56:03;8.40;;;7.90;;
75285;SDS011;63879;46.064;14.532;2023-07-09T15:58:37;9.63;;;9.02;;
75285;SDS011;63879;46.064;14.532;2023-07-09T16:01:09;8.30;;;7.72;;
75285;SDS011;63879;46.064;14.532;2023-07-09T16:03:35;8.77;;;8.27;;
75285;SDS011;63879;46.064;14.532;2023-07-09T16:06:01;8.40;;;7.70;;
75285;SDS011;63879;46.064;14.532;2023-07-09T16:08:26;9.13;;;8.63;;
75285;SDS011;63879;46.064;14.532;2023-07-09T16:10:52;8.02;;;7.45;;
75285;SDS011;63879;46.064;14.532;2023-07-09T16:13:19;7.43;;;6.72;;
75285;SDS011;63879;46.064;14.532;2023-07-09T16:15:46;9.95;;;9.20;;
75285;SDS011;63879;46.064;14.532;2023-07-09T16:18:11;12.43;;;11.52;;
75285;SDS011;63879;46.064;14.532;2023-07-09T16:20:37;8.27;;;7.67;;
75285;SDS011;63879;46.064;14.532;2023-07-09T16:23:02;9.90;;;9.20;;
75285;SDS011;63879;46.064;14.532;2023-07-09T16:25:29;8.88;;;8.18;;
75285;SDS011;63879;46.064;14.532;2023-07-09T16:27:57;14.30;;;13.30;;
75285;SDS011;63879;46.064;14.532;2023-07-09T16:30:23;9.73;;;9.13;;
75285;SDS011;63879;46.064;14.532;2023-07-09T16:32:52;12.15;;;11.38;;
75285;SDS011;63879;46.064;14.532;2023-07-09T16:35:19;8.82;;;8.18;;
75285;SDS011;63879;46.064;14.532;2023-07-09T16:37:46;9.68;;;8.98;;
75285;SDS011;63879;46.064;14.532;2023-07-09T16:40:19;11.43;;;10.60;;
75285;SDS011;63879;46.064;14.532;2023-07-09T16:42:47;8.93;;;8.32;;
75285;SDS011;63879;46.064;14.532;2023-07-09T16:45:13;8.63;;;7.95;;
75285;SDS011;63879;46.064;14.532;2023-07-09T16:50:06;8.15;;;7.45;;
75285;SDS011;63879;46.064;14.532;2023-07-09T16:52:33;10.20;;;9.45;;
75285;SDS011;63879;46.064;14.532;2023-07-09T16:54:59;8.75;;;8.05;;
75285;SDS011;63879;46.064;14.532;2023-07-09T16:57:25;11.27;;;10.57;;
75285;SDS011;63879;46.064;14.532;2023-07-09T16:59:53;9.52;;;8.82;;
75285;SDS011;63879;46.064;14.532;2023-07-09T17:04:52;8.68;;;8.02;;
75285;SDS011;63879;46.064;14.532;2023-07-09T17:07:18;10.38;;;9.60;;
75285;SDS011;63879;46.064;14.532;2023-07-09T17:09:44;9.32;;;8.63;;
75285;SDS011;63879;46.064;14.532;2023-07-09T17:12:10;7.65;;;7.05;;
75285;SDS011;63879;46.064;14.532;2023-07-09T17:14:37;10.65;;;9.85;;
75285;SDS011;63879;46.064;14.532;2023-07-09T17:17:02;13.05;;;12.07;;
75285;SDS011;63879;46.064;14.532;2023-07-09T17:19:28;8.88;;;8.27;;
75285;SDS011;63879;46.064;14.532;2023-07-09T17:21:54;8.75;;;8.15;;
75285;SDS011;63879;46.064;14.532;2023-07-09T17:24:21;8.48;;;7.85;;
75285;SDS011;63879;46.064;14.532;2023-07-09T17:26:48;8.25;;;7.45;;
75285;SDS011;63879;46.064;14.532;2023-07-09T17:29:15;9.52;;;8.82;;
75285;SDS011;63879;46.064;14.532;2023-07-09T17:34:14;8.10;;;7.40;;
75285;SDS011;63879;46.064;14.532;2023-07-09T17:36:40;6.60;;;6.00;;
75285;SDS011;63879;46.064;14.532;2023-07-09T17:39:11;8.38;;;7.65;;
75285;SDS011;63879;46.064;14.532;2023-07-09T17:41:41;7.50;;;6.90;;
75285;SDS011;63879;46.064;14.532;2023-07-09T17:44:12;7.80;;;7.10;;
75285;SDS011;63879;46.064;14.532;2023-07-09T17:46:38;6.97;;;6.47;;
75285;SDS011;63879;46.064;14.532;2023-07-09T17:49:07;8.27;;;7.67;;
75285;SDS011;63879;46.064;14.532;2023-07-09T17:51:34;8.30;;;7.60;;
75285;SDS011;63879;46.064;14.532;2023-07-09T17:53:59;15.17;;;14.27;;
75285;SDS011;63879;46.064;14.532;2023-07-09T17:56:25;14.33;;;13.43;;
75285;SDS011;63879;46.064;14.532;2023-07-09T17:58:54;7.28;;;6.68;;
75285;SDS011;63879;46.064;14.532;2023-07-09T18:01:19;9.48;;;8.88;;
75285;SDS011;63879;46.064;14.532;2023-07-09T18:03:45;6.80;;;6.10;;
75285;SDS011;63879;46.064;14.532;2023-07-09T18:06:12;13.23;;;12.43;;
75285;SDS011;63879;46.064;14.532;2023-07-09T18:08:39;8.82;;;8.10;;
75285;SDS011;63879;46.064;14.532;2023-07-09T18:11:04;7.63;;;7.03;;
75285;SDS011;63879;46.064;14.532;2023-07-09T18:13:30;6.77;;;6.20;;
75285;SDS011;63879;46.064;14.532;2023-07-09T18:15:55;8.00;;;7.22;;
75285;SDS011;63879;46.064;14.532;2023-07-09T18:18:21;6.35;;;5.75;;
75285;SDS011;63879;46.064;14.532;2023-07-09T18:20:47;7.93;;;7.22;;
75285;SDS011;63879;46.064;14.532;2023-07-09T18:23:12;7.60;;;7.03;;
75285;SDS011;63879;46.064;14.532;2023-07-09T18:25:38;8.10;;;7.43;;
75285;SDS011;63879;46.064;14.532;2023-07-09T18:28:05;6.13;;;5.57;;
75285;SDS011;63879;46.064;14.532;2023-07-09T18:30:33;6.60;;;5.97;;
75285;SDS011;63879;46.064;14.532;2023-07-09T18:33:04;9.05;;;8.25;;
75285;SDS011;63879;46.064;14.532;2023-07-09T18:35:34;6.82;;;6.22;;
75285;SDS011;63879;46.064;14.532;2023-07-09T18:38:04;6.72;;;6.15;;
75285;SDS011;63879;46.064;14.532;2023-07-09T18:40:34;6.25;;;5.65;;
75285;SDS011;63879;46.064;14.532;2023-07-09T18:43:14;7.50;;;6.80;;
75285;SDS011;63879;46.064;14.532;2023-07-09T18:45:41;6.93;;;6.32;;
75285;SDS011;63879;46.064;14.532;2023-07-09T18:48:13;7.95;;;6.60;;
75285;SDS011;63879;46.064;14.532;2023-07-09T18:53:07;6.57;;;5.35;;
75285;SDS011;63879;46.064;14.532;2023-07-09T18:55:34;6.80;;;6.20;;
75285;SDS011;63879;46.064;14.532;2023-07-09T18:58:00;8.17;;;7.60;;
75285;SDS011;63879;46.064;14.532;2023-07-09T19:00:25;7.00;;;6.40;;
75285;SDS011;63879;46.064;14.532;2023-07-09T19:02:51;6.53;;;5.93;;
75285;SDS011;63879;46.064;14.532;2023-07-09T19:05:26;9.60;;;8.90;;
75285;SDS011;63879;46.064;14.532;2023-07-09T19:07:56;9.38;;;8.68;;
75285;SDS011;63879;46.064;14.532;2023-07-09T19:10:23;11.15;;;10.35;;
75285;SDS011;63879;46.064;14.532;2023-07-09T19:12:50;10.40;;;9.60;;
75285;SDS011;63879;46.064;14.532;2023-07-09T19:15:18;17.13;;;16.23;;
75285;SDS011;63879;46.064;14.532;2023-07-09T19:17:44;10.55;;;9.82;;
75285;SDS011;63879;46.064;14.532;2023-07-09T19:20:28;10.75;;;9.95;;
75285;SDS011;63879;46.064;14.532;2023-07-09T19:22:54;18.00;;;16.95;;
75285;SDS011;63879;46.064;14.532;2023-07-09T19:25:23;10.57;;;9.80;;
75285;SDS011;63879;46.064;14.532;2023-07-09T19:27:50;10.48;;;9.45;;
75285;SDS011;63879;46.064;14.532;2023-07-09T19:30:17;7.07;;;6.38;;
75285;SDS011;63879;46.064;14.532;2023-07-09T19:32:45;7.10;;;6.45;;
75285;SDS011;63879;46.064;14.532;2023-07-09T19:35:13;7.95;;;7.18;;
75285;SDS011;63879;46.064;14.532;2023-07-09T19:37:40;8.43;;;7.28;;
75285;SDS011;63879;46.064;14.532;2023-07-09T19:40:14;7.97;;;7.27;;
75285;SDS011;63879;46.064;14.532;2023-07-09T19:42:50;7.05;;;6.55;;
75285;SDS011;63879;46.064;14.532;2023-07-09T19:45:18;7.30;;;6.70;;
75285;SDS011;63879;46.064;14.532;2023-07-09T19:47:45;7.60;;;6.90;;
75285;SDS011;63879;46.064;14.532;2023-07-09T19:52:57;5.45;;;4.95;;
75285;SDS011;63879;46.064;14.532;2023-07-09T19:55:26;79.50;;;36.42;;
75285;SDS011;63879;46.064;14.532;2023-07-09T19:57:54;7.18;;;5.97;;
75285;SDS011;63879;46.064;14.532;2023-07-09T20:00:21;6.75;;;5.30;;
75285;SDS011;63879;46.064;14.532;2023-07-09T20:02:47;5.63;;;5.18;;
75285;SDS011;63879;46.064;14.532;2023-07-09T20:05:14;5.40;;;4.72;;
75285;SDS011;63879;46.064;14.532;2023-07-09T20:07:39;5.03;;;4.53;;
75285;SDS011;63879;46.064;14.532;2023-07-09T20:10:05;4.80;;;4.40;;
75285;SDS011;63879;46.064;14.532;2023-07-09T20:12:31;4.88;;;3.95;;
75285;SDS011;63879;46.064;14.532;2023-07-09T20:14:56;5.18;;;4.63;;
75285;SDS011;63879;46.064;14.532;2023-07-09T20:17:22;6.15;;;5.57;;
75285;SDS011;63879;46.064;14.532;2023-07-09T20:19:47;5.97;;;5.30;;
75285;SDS011;63879;46.064;14.532;2023-07-09T20:22:14;5.30;;;4.47;;
75285;SDS011;63879;46.064;14.532;2023-07-09T20:24:41;6.32;;;5.72;;
75285;SDS011;63879;46.064;14.532;2023-07-09T20:27:10;4.72;;;4.28;;
75285;SDS011;63879;46.064;14.532;2023-07-09T20:29:37;7.57;;;6.15;;
75285;SDS011;63879;46.064;14.532;2023-07-09T20:32:02;5.82;;;5.32;;
75285;SDS011;63879;46.064;14.532;2023-07-09T20:34:28;9.60;;;9.05;;
75285;SDS011;63879;46.064;14.532;2023-07-09T20:36:53;5.97;;;5.40;;
75285;SDS011;63879;46.064;14.532;2023-07-09T20:39:20;6.77;;;5.43;;
75285;SDS011;63879;46.064;14.532;2023-07-09T20:41:47;6.85;;;5.97;;
75285;SDS011;63879;46.064;14.532;2023-07-09T20:44:14;6.20;;;5.65;;
75285;SDS011;63879;46.064;14.532;2023-07-09T20:46:41;5.25;;;4.68;;
75285;SDS011;63879;46.064;14.532;2023-07-09T20:49:14;5.13;;;4.47;;
75285;SDS011;63879;46.064;14.532;2023-07-09T20:51:45;4.97;;;4.57;;
75285;SDS011;63879;46.064;14.532;2023-07-09T20:54:10;6.63;;;6.10;;
75285;SDS011;63879;46.064;14.532;2023-07-09T20:56:36;5.53;;;4.80;;
75285;SDS011;63879;46.064;14.532;2023-07-09T20:59:02;5.03;;;4.55;;
